createdAt,value
2018-01-23T00:02:33.170Z,6.10
2018-01-23T00:04:59.586Z,6.40
2018-01-23T00:07:26.128Z,6.20
2018-01-23T00:09:54.090Z,6.40
2018-01-23T00:12:20.692Z,6.70
2018-01-23T00:14:46.961Z,6.20
2018-01-23T00:17:13.258Z,6.10
2018-01-23T00:19:40.329Z,6.20
2018-01-23T00:22:06.669Z,6.20
2018-01-23T00:24:32.960Z,6.00
2018-01-23T00:26:59.230Z,6.00
2018-01-23T00:29:25.512Z,6.20
2018-01-23T00:31:51.782Z,6.00
2018-01-23T00:34:18.072Z,6.10
2018-01-23T00:36:44.357Z,6.10
2018-01-23T00:39:10.631Z,6.10
2018-01-23T00:41:37.676Z,6.20
2018-01-23T00:44:03.954Z,6.10
2018-01-23T00:46:30.981Z,6.30
2018-01-23T00:48:57.243Z,6.20
2018-01-23T00:51:24.241Z,6.30
2018-01-23T00:53:51.268Z,6.20
2018-01-23T00:56:18.274Z,6.20
2018-01-23T00:58:44.579Z,6.30
2018-01-23T01:01:10.845Z,6.00
2018-01-23T01:03:37.853Z,6.20
2018-01-23T01:06:04.162Z,6.40
2018-01-23T01:08:30.412Z,6.00
2018-01-23T01:10:57.444Z,6.30
2018-01-23T01:13:23.710Z,6.10
2018-01-23T01:15:50.000Z,6.00
2018-01-23T01:18:16.293Z,6.00
2018-01-23T01:20:42.546Z,6.10
2018-01-23T01:23:08.833Z,6.10
2018-01-23T01:25:35.104Z,6.20
2018-01-23T01:28:01.366Z,6.10
2018-01-23T01:30:27.664Z,6.00
2018-01-23T01:32:53.922Z,6.10
2018-01-23T01:35:20.199Z,6.10
2018-01-23T01:37:46.452Z,5.90
2018-01-23T01:40:12.718Z,6.10
2018-01-23T01:42:39.761Z,6.00
2018-01-23T01:45:06.037Z,6.70
2018-01-23T01:47:32.314Z,6.10
2018-01-23T01:49:59.328Z,6.10
2018-01-23T01:52:25.589Z,5.90
2018-01-23T01:54:51.853Z,6.10
2018-01-23T01:57:18.118Z,6.00
2018-01-23T01:59:44.407Z,6.00
2018-01-23T02:02:10.665Z,5.90
2018-01-23T02:04:36.905Z,6.20
2018-01-23T02:07:03.181Z,6.20
2018-01-23T02:09:29.474Z,6.00
2018-01-23T02:11:55.771Z,6.00
2018-01-23T02:14:22.014Z,5.90
2018-01-23T02:16:48.264Z,6.20
2018-01-23T02:19:15.351Z,6.00
2018-01-23T02:21:41.626Z,6.10
2018-01-23T02:24:08.730Z,6.10
2018-01-23T02:26:35.020Z,6.10
2018-01-23T02:29:01.286Z,6.10
2018-01-23T02:31:28.315Z,6.20
2018-01-23T02:33:55.330Z,6.30
2018-01-23T02:36:21.633Z,6.30
2018-01-23T02:38:47.902Z,6.20
2018-01-23T02:41:14.215Z,6.00
2018-01-23T02:43:40.502Z,5.60
2018-01-23T02:46:07.490Z,6.30
2018-01-23T02:48:33.778Z,6.10
2018-01-23T02:51:00.045Z,6.10
2018-01-23T02:53:26.305Z,6.30
2018-01-23T02:55:52.602Z,6.50
2018-01-23T02:58:19.613Z,6.20
2018-01-23T03:00:45.947Z,6.20
2018-01-23T03:03:12.962Z,6.30
2018-01-23T03:05:39.232Z,6.20
2018-01-23T03:08:05.537Z,6.00
2018-01-23T03:10:31.809Z,6.10
2018-01-23T03:12:58.094Z,6.20
2018-01-23T03:15:24.363Z,6.40
2018-01-23T03:17:50.646Z,6.10
2018-01-23T03:20:16.938Z,6.20
2018-01-23T03:22:43.262Z,6.30
2018-01-23T03:25:09.537Z,6.10
2018-01-23T03:27:35.797Z,6.00
2018-01-23T03:30:02.086Z,6.10
2018-01-23T03:32:28.373Z,6.30
2018-01-23T03:34:54.633Z,6.20
2018-01-23T03:37:20.908Z,6.40
2018-01-23T03:39:47.165Z,6.30
2018-01-23T03:42:13.470Z,6.50
2018-01-23T03:44:39.750Z,6.40
2018-01-23T03:47:06.010Z,6.20
2018-01-23T03:49:32.275Z,6.40
2018-01-23T03:51:58.548Z,6.20
2018-01-23T03:54:24.816Z,6.20
2018-01-23T03:56:51.116Z,6.20
2018-01-23T03:59:18.249Z,6.30
2018-01-23T04:01:45.265Z,6.20
2018-01-23T04:04:11.581Z,6.40
2018-01-23T04:06:37.838Z,6.40
2018-01-23T04:09:04.117Z,6.20
2018-01-23T04:11:31.137Z,6.40
2018-01-23T04:13:57.392Z,6.30
2018-01-23T04:16:23.713Z,6.30
2018-01-23T04:18:50.036Z,6.20
2018-01-23T04:21:16.285Z,6.30
2018-01-23T04:23:42.603Z,6.30
2018-01-23T04:26:08.892Z,6.40
2018-01-23T04:28:35.255Z,6.40
2018-01-23T04:31:02.269Z,6.40
2018-01-23T04:33:28.562Z,6.20
2018-01-23T04:35:54.902Z,6.10
2018-01-23T04:38:21.153Z,5.60
2018-01-23T04:40:47.428Z,6.20
2018-01-23T04:43:13.762Z,6.20
2018-01-23T04:45:40.757Z,6.40
2018-01-23T04:48:07.221Z,6.50
2018-01-23T04:50:34.220Z,6.40
2018-01-23T04:53:00.505Z,6.20
2018-01-23T04:55:26.765Z,6.00
2018-01-23T04:57:53.029Z,6.30
2018-01-23T05:00:19.311Z,6.40
2018-01-23T05:02:46.330Z,6.30
2018-01-23T05:05:12.601Z,6.30
2018-01-23T05:07:38.851Z,6.40
2018-01-23T05:10:05.105Z,6.20
2018-01-23T05:12:31.385Z,6.10
2018-01-23T05:14:57.650Z,6.20
2018-01-23T05:17:23.934Z,6.20
2018-01-23T05:19:50.933Z,6.10
2018-01-23T05:22:17.186Z,6.20
2018-01-23T05:24:43.462Z,6.20
2018-01-23T05:27:09.725Z,6.20
2018-01-23T05:29:36.014Z,6.40
2018-01-23T05:32:02.266Z,6.30
2018-01-23T05:34:28.525Z,6.30
2018-01-23T05:36:54.829Z,6.30
2018-01-23T05:39:21.083Z,6.40
2018-01-23T05:41:48.118Z,6.60
2018-01-23T05:44:15.183Z,6.30
2018-01-23T05:46:41.466Z,6.50
2018-01-23T05:49:07.745Z,6.40
2018-01-23T05:51:34.006Z,6.40
2018-01-23T05:54:00.303Z,6.50
2018-01-23T05:56:27.327Z,6.20
2018-01-23T05:58:53.585Z,6.30
2018-01-23T06:01:19.885Z,6.30
2018-01-23T06:03:46.162Z,6.20
2018-01-23T06:06:12.469Z,6.30
2018-01-23T06:08:39.045Z,6.20
2018-01-23T06:11:05.297Z,6.40
2018-01-23T06:13:31.588Z,6.40
2018-01-23T06:15:57.865Z,6.20
2018-01-23T06:18:24.992Z,6.40
2018-01-23T06:20:52.018Z,6.10
2018-01-23T06:23:18.331Z,6.40
2018-01-23T06:25:44.669Z,6.20
2018-01-23T06:28:11.749Z,6.40
2018-01-23T06:30:38.061Z,6.50
2018-01-23T06:33:04.338Z,6.50
2018-01-23T06:35:31.345Z,6.30
2018-01-23T06:37:57.653Z,6.30
2018-01-23T06:40:23.917Z,6.50
2018-01-23T06:42:50.485Z,6.50
2018-01-23T06:45:17.543Z,6.40
2018-01-23T06:47:44.937Z,6.40
2018-01-23T06:50:11.267Z,6.40
2018-01-23T06:52:37.534Z,6.40
2018-01-23T06:55:03.845Z,6.40
2018-01-23T06:57:30.857Z,6.30
2018-01-23T06:59:57.126Z,6.30
2018-01-23T07:02:23.443Z,6.50
2018-01-23T07:04:49.720Z,6.40
2018-01-23T07:07:15.998Z,6.20
2018-01-23T07:09:42.285Z,6.30
2018-01-23T07:12:08.564Z,6.30
2018-01-23T07:14:34.865Z,6.80
2018-01-23T07:17:01.867Z,6.50
2018-01-23T07:19:28.172Z,6.40
2018-01-23T07:21:54.458Z,6.20
2018-01-23T07:24:20.795Z,6.50
2018-01-23T07:26:47.046Z,6.30
2018-01-23T07:29:13.334Z,6.30
2018-01-23T07:31:39.617Z,6.30
2018-01-23T07:34:05.889Z,6.20
2018-01-23T07:36:32.142Z,5.90
2018-01-23T07:38:58.430Z,6.30
2018-01-23T07:41:24.693Z,6.30
2018-01-23T07:43:51.026Z,6.30
2018-01-23T07:46:17.298Z,6.30
2018-01-23T07:48:43.577Z,6.40
2018-01-23T07:51:09.892Z,6.30
2018-01-23T07:53:36.144Z,6.50
2018-01-23T07:56:02.445Z,6.30
2018-01-23T07:58:29.470Z,6.20
2018-01-23T08:00:56.494Z,6.40
2018-01-23T08:03:22.814Z,6.40
2018-01-23T08:05:49.095Z,6.30
2018-01-23T08:08:15.351Z,6.50
2018-01-23T08:10:42.364Z,6.60
2018-01-23T08:13:08.632Z,6.30
2018-01-23T08:15:34.918Z,6.50
2018-01-23T08:18:01.325Z,6.50
2018-01-23T08:20:27.579Z,6.40
2018-01-23T08:22:53.854Z,6.20
2018-01-23T08:25:20.121Z,6.50
2018-01-23T08:27:46.399Z,6.40
2018-01-23T08:30:13.421Z,6.60
2018-01-23T08:32:40.436Z,6.60
2018-01-23T08:35:06.716Z,6.40
2018-01-23T08:37:32.979Z,6.40
2018-01-23T08:40:00.025Z,6.60
2018-01-23T08:42:26.338Z,6.50
2018-01-23T08:44:53.366Z,6.60
2018-01-23T08:47:20.390Z,6.60
2018-01-23T08:49:46.640Z,6.40
2018-01-23T08:52:12.905Z,6.60
2018-01-23T08:54:39.198Z,6.50
2018-01-23T08:57:05.481Z,6.30
2018-01-23T08:59:31.761Z,6.50
2018-01-23T09:01:58.037Z,6.60
2018-01-23T09:04:24.301Z,6.80
2018-01-23T09:06:50.613Z,6.60
2018-01-23T09:09:18.416Z,6.60
2018-01-23T09:11:44.713Z,6.60
2018-01-23T09:14:11.002Z,6.70
2018-01-23T09:16:37.272Z,6.70
2018-01-23T09:19:03.573Z,6.80
2018-01-23T09:21:29.859Z,6.90
2018-01-23T09:23:56.145Z,7.10
2018-01-23T09:26:22.398Z,7.00
2018-01-23T09:28:48.677Z,6.80
2018-01-23T09:31:14.973Z,6.80
2018-01-23T09:33:41.242Z,6.90
2018-01-23T09:36:07.534Z,7.00
2018-01-23T09:38:34.536Z,7.00
2018-01-23T09:41:00.804Z,6.90
2018-01-23T09:43:27.134Z,7.00
2018-01-23T09:45:53.423Z,7.20
2018-01-23T09:48:19.705Z,7.70
2018-01-23T09:50:45.962Z,7.30
2018-01-23T09:53:12.250Z,7.40
2018-01-23T09:55:38.521Z,7.30
2018-01-23T09:58:04.779Z,7.40
2018-01-23T10:00:31.069Z,7.60
2018-01-23T10:02:57.330Z,7.50
2018-01-23T10:05:23.607Z,7.50
2018-01-23T10:07:49.903Z,7.60
2018-01-23T10:10:16.154Z,7.90
2018-01-23T10:12:43.202Z,7.70
2018-01-23T10:15:10.217Z,8.20
2018-01-23T10:17:36.492Z,7.90
2018-01-23T10:20:02.829Z,8.10
2018-01-23T10:22:29.116Z,8.10
2018-01-23T10:24:55.423Z,8.30
2018-01-23T10:27:21.700Z,8.40
2018-01-23T10:29:48.976Z,8.50
2018-01-23T10:32:16.054Z,8.10
2018-01-23T10:34:42.326Z,8.20
2018-01-23T10:37:08.632Z,8.20
2018-01-23T10:39:34.937Z,8.20
2018-01-23T10:42:01.192Z,8.20
2018-01-23T10:44:27.522Z,8.20
2018-01-23T10:46:53.885Z,8.20
2018-01-23T10:49:20.188Z,8.70
2018-01-23T10:51:47.189Z,8.30
2018-01-23T10:54:13.460Z,8.30
2018-01-23T10:56:39.753Z,8.30
2018-01-23T10:59:06.741Z,8.30
2018-01-23T11:01:39.078Z,8.30
2018-01-23T11:04:05.367Z,8.40
2018-01-23T11:06:31.656Z,8.30
2018-01-23T11:08:59.024Z,8.30
2018-01-23T11:11:25.272Z,8.30
2018-01-23T11:13:51.592Z,8.30
2018-01-23T11:16:17.852Z,8.30
2018-01-23T11:18:44.881Z,8.30
2018-01-23T11:21:11.901Z,8.30
2018-01-23T11:23:38.153Z,8.40
2018-01-23T11:26:04.477Z,8.40
2018-01-23T11:28:30.738Z,8.40
2018-01-23T11:30:57.031Z,7.90
2018-01-23T11:33:23.306Z,8.30
2018-01-23T11:35:49.593Z,8.60
2018-01-23T11:38:15.897Z,8.20
2018-01-23T11:40:42.157Z,8.30
2018-01-23T11:43:08.470Z,8.50
2018-01-23T11:45:34.746Z,8.40
2018-01-23T11:48:01.022Z,8.80
2018-01-23T11:50:27.309Z,8.90
2018-01-23T11:52:53.553Z,8.70
2018-01-23T11:55:19.845Z,8.90
2018-01-23T11:57:46.132Z,9.20
2018-01-23T12:00:12.413Z,9.50
2018-01-23T12:02:38.697Z,10.10
2018-01-23T12:05:04.974Z,11.20
2018-01-23T12:07:31.974Z,12.20
2018-01-23T12:09:58.261Z,12.40
2018-01-23T12:12:24.549Z,12.00
2018-01-23T12:14:50.826Z,11.50
2018-01-23T12:17:17.121Z,11.00
2018-01-23T12:19:43.390Z,10.50
2018-01-23T12:22:09.677Z,10.10
2018-01-23T12:24:35.981Z,9.90
2018-01-23T12:27:02.254Z,9.70
2018-01-23T12:29:28.563Z,9.50
2018-01-23T12:31:55.557Z,9.60
2018-01-23T12:34:21.817Z,9.80
2018-01-23T12:36:48.113Z,9.30
2018-01-23T12:39:15.133Z,9.30
2018-01-23T12:41:41.421Z,9.30
2018-01-23T12:44:07.690Z,9.30
2018-01-23T12:46:33.974Z,9.60
2018-01-23T12:49:00.275Z,10.20
2018-01-23T12:51:26.536Z,9.40
2018-01-23T12:53:52.853Z,10.00
2018-01-23T12:56:19.134Z,10.00
2018-01-23T12:58:45.433Z,9.80
2018-01-23T13:01:11.728Z,9.90
2018-01-23T13:03:37.982Z,9.80
2018-01-23T13:06:04.286Z,9.90
2018-01-23T13:08:30.558Z,10.30
2018-01-23T13:10:56.833Z,10.40
2018-01-23T13:13:23.873Z,10.30
2018-01-23T13:15:50.885Z,10.20
2018-01-23T13:18:17.189Z,10.10
2018-01-23T13:20:43.452Z,10.10
2018-01-23T13:23:09.709Z,9.60
2018-01-23T13:25:35.988Z,9.50
2018-01-23T13:28:02.318Z,9.60
2018-01-23T13:30:28.606Z,9.60
2018-01-23T13:32:54.868Z,9.50
2018-01-23T13:35:21.129Z,9.40
2018-01-23T13:37:48.157Z,9.50
2018-01-23T13:40:14.444Z,9.40
2018-01-23T13:42:40.749Z,9.50
2018-01-23T13:45:07.029Z,9.30
2018-01-23T13:47:33.326Z,9.50
2018-01-23T13:50:00.388Z,9.40
2018-01-23T13:52:26.667Z,9.30
2018-01-23T13:54:52.946Z,9.20
2018-01-23T13:57:19.225Z,9.20
2018-01-23T13:59:46.217Z,9.30
2018-01-23T14:02:12.572Z,9.30
2018-01-23T14:04:38.835Z,9.30
2018-01-23T14:07:05.165Z,9.30
2018-01-23T14:09:31.428Z,9.20
2018-01-23T14:11:57.666Z,9.30
2018-01-23T14:14:23.941Z,9.10
2018-01-23T14:16:50.224Z,9.30
2018-01-23T14:19:17.287Z,9.30
2018-01-23T14:21:43.549Z,9.20
2018-01-23T14:24:09.851Z,9.10
2018-01-23T14:26:36.145Z,9.10
2018-01-23T14:29:02.419Z,9.10
2018-01-23T14:31:29.462Z,9.10
2018-01-23T14:33:56.473Z,8.90
2018-01-23T14:36:22.762Z,9.00
2018-01-23T14:38:49.071Z,9.00
2018-01-23T14:41:15.366Z,9.30
2018-01-23T14:43:41.669Z,9.20
2018-01-23T14:46:07.920Z,9.00
2018-01-23T14:48:34.235Z,9.10
2018-01-23T14:51:00.743Z,9.00
2018-01-23T14:53:27.520Z,9.00
2018-01-23T14:55:53.870Z,8.90
2018-01-23T14:58:20.242Z,8.30
2018-01-23T15:00:46.562Z,8.40
2018-01-23T15:03:12.877Z,8.80
2018-01-23T15:05:39.162Z,8.90
2018-01-23T15:08:05.615Z,8.50
2018-01-23T15:10:31.948Z,8.40
2018-01-23T15:12:58.949Z,8.90
2018-01-23T15:15:25.254Z,8.60
2018-01-23T15:17:51.546Z,8.60
2018-01-23T15:20:17.843Z,9.00
2018-01-23T15:22:44.096Z,8.60
2018-01-23T15:25:10.369Z,8.60
2018-01-23T15:27:36.658Z,8.60
2018-01-23T15:30:02.972Z,8.50
2018-01-23T15:32:29.295Z,8.70
2018-01-23T15:34:55.562Z,8.40
2018-01-23T15:37:21.829Z,8.70
2018-01-23T15:39:48.148Z,8.40
2018-01-23T15:42:14.445Z,8.40
2018-01-23T15:44:41.478Z,8.50
2018-01-23T15:47:08.577Z,8.30
2018-01-23T15:49:34.886Z,8.30
2018-01-23T15:52:01.170Z,8.10
2018-01-23T15:54:27.432Z,8.20
2018-01-23T15:56:53.691Z,8.50
2018-01-23T15:59:20.246Z,8.20
2018-01-23T16:01:46.573Z,8.20
2018-01-23T16:04:12.825Z,8.30
2018-01-23T16:06:39.306Z,8.20
2018-01-23T16:09:06.441Z,7.70
2018-01-23T16:11:32.754Z,8.20
2018-01-23T16:13:59.046Z,8.20
2018-01-23T16:16:25.514Z,8.20
2018-01-23T16:18:51.834Z,8.10
2018-01-23T16:21:18.312Z,8.30
2018-01-23T16:23:44.608Z,8.30
2018-01-23T16:26:10.913Z,8.20
2018-01-23T16:28:37.164Z,8.20
2018-01-23T16:31:03.468Z,8.10
2018-01-23T16:33:29.736Z,7.90
2018-01-23T16:35:56.750Z,8.20
2018-01-23T16:38:25.364Z,8.10
2018-01-23T16:40:51.670Z,8.10
2018-01-23T16:43:18.670Z,8.00
2018-01-23T16:45:45.721Z,8.00
2018-01-23T16:48:12.017Z,7.90
2018-01-23T16:50:38.338Z,8.10
2018-01-23T16:53:04.636Z,8.10
2018-01-23T16:55:30.934Z,8.00
2018-01-23T16:57:57.471Z,8.40
2018-01-23T17:00:23.952Z,8.40
2018-01-23T17:02:50.287Z,7.90
2018-01-23T17:05:16.544Z,8.00
2018-01-23T17:07:42.793Z,8.00
2018-01-23T17:10:09.452Z,7.80
2018-01-23T17:12:35.947Z,8.10
2018-01-23T17:15:02.279Z,8.00
2018-01-23T17:17:28.529Z,7.80
2018-01-23T17:19:54.792Z,8.00
2018-01-23T17:22:21.303Z,7.70
2018-01-23T17:24:47.658Z,7.90
2018-01-23T17:27:14.436Z,7.80
2018-01-23T17:29:40.714Z,8.00
2018-01-23T17:32:07.034Z,7.80
2018-01-23T17:34:33.346Z,7.80
2018-01-23T17:36:59.675Z,7.80
2018-01-23T17:39:26.197Z,7.90
2018-01-23T17:41:53.347Z,7.80
2018-01-23T17:44:19.846Z,7.70
2018-01-23T17:46:46.921Z,7.70
2018-01-23T17:49:13.232Z,7.80
2018-01-23T17:51:39.566Z,7.80
2018-01-23T17:54:05.972Z,8.00
2018-01-23T17:56:32.265Z,7.80
2018-01-23T17:58:59.286Z,8.00
2018-01-23T18:01:26.329Z,8.20
2018-01-23T18:03:53.181Z,7.90
2018-01-23T18:06:19.473Z,7.90
2018-01-23T18:08:45.759Z,7.70
2018-01-23T18:11:12.064Z,8.10
2018-01-23T18:13:38.350Z,8.00
2018-01-23T18:16:04.700Z,7.90
2018-01-23T18:18:31.882Z,8.20
2018-01-23T18:20:58.188Z,8.10
2018-01-23T18:23:25.282Z,8.10
2018-01-23T18:25:51.557Z,8.10
2018-01-23T18:28:17.982Z,8.10
2018-01-23T18:30:44.310Z,8.10
2018-01-23T18:33:10.630Z,8.10
2018-01-23T18:35:36.969Z,8.00
2018-01-23T18:38:03.289Z,8.20
2018-01-23T18:40:29.593Z,8.00
2018-01-23T18:42:55.853Z,8.10
2018-01-23T18:45:22.136Z,7.90
2018-01-23T18:47:48.437Z,7.80
2018-01-23T18:50:14.705Z,8.00
2018-01-23T18:52:41.042Z,7.70
2018-01-23T18:55:07.319Z,8.00
2018-01-23T18:57:37.787Z,7.70
2018-01-23T19:00:06.379Z,7.80
2018-01-23T19:02:34.261Z,7.80
2018-01-23T19:05:01.314Z,7.70
2018-01-23T19:07:27.570Z,7.70
2018-01-23T19:09:53.855Z,7.80
2018-01-23T19:12:20.180Z,7.80
2018-01-23T19:14:46.481Z,7.70
2018-01-23T19:17:12.808Z,7.80
2018-01-23T19:19:39.234Z,7.70
2018-01-23T19:22:05.549Z,7.70
2018-01-23T19:24:32.215Z,7.80
2018-01-23T19:26:58.569Z,7.70
2018-01-23T19:29:24.866Z,7.70
2018-01-23T19:31:52.214Z,7.70
2018-01-23T19:34:19.440Z,7.70
2018-01-23T19:36:45.768Z,7.70
2018-01-23T19:39:12.114Z,7.80
2018-01-23T19:41:38.421Z,7.80
2018-01-23T19:44:04.821Z,8.00
2018-01-23T19:46:31.449Z,7.40
2018-01-23T19:48:57.856Z,7.90
2018-01-23T19:51:24.337Z,7.90
2018-01-23T19:53:50.655Z,7.60
2018-01-23T19:56:16.948Z,7.10
2018-01-23T19:58:43.563Z,8.00
2018-01-23T20:01:10.283Z,7.70
2018-01-23T20:03:36.584Z,7.70
2018-01-23T20:06:03.161Z,7.80
2018-01-23T20:08:29.484Z,7.90
2018-01-23T20:10:55.733Z,7.70
2018-01-23T20:13:22.086Z,7.80
2018-01-23T20:15:48.344Z,7.70
2018-01-23T20:18:15.537Z,7.70
2018-01-23T20:20:41.834Z,7.80
2018-01-23T20:23:08.334Z,7.80
2018-01-23T20:25:34.657Z,7.70
2018-01-23T20:28:01.038Z,7.80
2018-01-23T20:30:27.534Z,7.90
2018-01-23T20:32:53.829Z,8.00
2018-01-23T20:35:20.454Z,7.80
2018-01-23T20:37:46.757Z,7.20
2018-01-23T20:40:13.038Z,8.00
2018-01-23T20:42:39.414Z,7.90
2018-01-23T20:45:05.884Z,7.80
2018-01-23T20:47:32.157Z,7.70
2018-01-23T20:49:58.455Z,7.90
2018-01-23T20:52:24.737Z,7.70
2018-01-23T20:54:51.126Z,7.90
2018-01-23T20:57:18.281Z,7.80
2018-01-23T20:59:44.658Z,7.70
2018-01-23T21:02:10.954Z,7.40
2018-01-23T21:04:37.250Z,7.80
2018-01-23T21:07:03.658Z,7.80
2018-01-23T21:09:29.941Z,7.90
2018-01-23T21:11:56.344Z,7.70
2018-01-23T21:14:22.763Z,7.70
2018-01-23T21:16:49.023Z,7.80
2018-01-23T21:19:15.298Z,7.80
2018-01-23T21:21:41.681Z,7.80
2018-01-23T21:24:07.968Z,7.90
2018-01-23T21:26:34.257Z,7.90
2018-01-23T21:29:00.519Z,8.00
2018-01-23T21:31:26.785Z,7.90
2018-01-23T21:33:53.112Z,7.80
2018-01-23T21:36:19.383Z,8.00
2018-01-23T21:38:46.161Z,8.00
2018-01-23T21:41:12.413Z,7.70
2018-01-23T21:43:38.765Z,8.00
2018-01-23T21:46:05.087Z,8.00
2018-01-23T21:48:32.096Z,8.20
2018-01-23T21:50:58.427Z,8.00
2018-01-23T21:53:24.692Z,8.30
2018-01-23T21:55:50.964Z,8.20
2018-01-23T21:58:17.283Z,8.30
2018-01-23T22:00:44.493Z,8.40
2018-01-23T22:03:11.677Z,8.20
2018-01-23T22:05:38.110Z,8.20
2018-01-23T22:08:05.122Z,8.00
2018-01-23T22:10:31.821Z,8.10
2018-01-23T22:12:58.082Z,8.10
2018-01-23T22:15:24.399Z,8.10
2018-01-23T22:17:50.665Z,8.20
2018-01-23T22:20:16.929Z,8.30
2018-01-23T22:22:43.220Z,8.20
2018-01-23T22:25:10.240Z,7.90
2018-01-23T22:27:37.331Z,8.20
2018-01-23T22:30:03.601Z,8.20
2018-01-23T22:32:30.598Z,8.30
2018-01-23T22:34:57.972Z,8.30
2018-01-23T22:37:36.256Z,8.10
2018-01-23T22:40:03.136Z,8.00
2018-01-23T22:42:30.023Z,7.80
2018-01-23T22:44:57.012Z,8.30
2018-01-23T22:47:23.297Z,8.10
2018-01-23T22:49:49.746Z,8.00
2018-01-23T22:52:18.843Z,8.40
2018-01-23T22:54:45.295Z,7.90
2018-01-23T22:57:11.950Z,8.20
2018-01-23T22:59:38.443Z,8.30
2018-01-23T23:02:04.995Z,8.30
2018-01-23T23:04:31.381Z,8.20
2018-01-23T23:06:58.813Z,8.30
2018-01-23T23:09:25.264Z,7.90
2018-01-23T23:11:51.541Z,8.10
2018-01-23T23:14:17.929Z,8.40
2018-01-23T23:16:44.283Z,8.20
2018-01-23T23:19:11.300Z,8.40
2018-01-23T23:21:38.573Z,8.00
2018-01-23T23:24:05.253Z,8.60
2018-01-23T23:26:31.540Z,8.20
2018-01-23T23:28:57.806Z,8.20
2018-01-23T23:31:24.840Z,8.50
2018-01-23T23:33:51.841Z,8.10
2018-01-23T23:36:18.097Z,8.20
2018-01-23T23:38:44.383Z,8.20
2018-01-23T23:41:10.660Z,8.20
2018-01-23T23:43:37.096Z,8.40
2018-01-23T23:46:03.367Z,8.00
2018-01-23T23:48:29.609Z,8.40
2018-01-23T23:50:55.878Z,8.10
2018-01-23T23:53:22.911Z,8.20
2018-01-23T23:55:49.933Z,8.10
2018-01-23T23:58:16.945Z,8.30
